Terminal Aerodrome Forecast
Issued by NWS Melbourne, FL

Current Version | Previous Version | Text Only | Print | Product List | Glossary On
Versions: 1 2 3 4 5 6 7 8 9 10 11 12 13 14 15 16 17 18 19 20 21 22 23 24
967
FTUS42 KMLB 122326
TAFMCO
TAF
KMCO 122326Z 1300/1324 26011KT P6SM FEW020
     FM130400 28008KT P6SM FEW030 SCT250
     FM131200 32008KT P6SM FEW250
     FM131400 35014KT P6SM SKC=

USA.gov is the U.S. government's official web portal to all federal, state and local government web resources and services.